createdAt,value
2018-06-05T00:01:16.630Z,15.60
2018-06-05T00:03:43.841Z,15.50
2018-06-05T00:06:11.062Z,15.40
2018-06-05T00:08:38.289Z,15.30
2018-06-05T00:11:05.570Z,15.30
2018-06-05T00:13:32.852Z,15.20
2018-06-05T00:16:00.093Z,15.00
2018-06-05T00:18:27.319Z,15.00
2018-06-05T00:20:54.596Z,14.90
2018-06-05T00:23:21.824Z,14.90
2018-06-05T00:25:49.017Z,14.80
2018-06-05T00:28:16.300Z,14.70
2018-06-05T00:30:43.520Z,14.70
2018-06-05T00:33:10.861Z,14.60
2018-06-05T00:35:38.124Z,14.50
2018-06-05T00:38:05.367Z,14.50
2018-06-05T00:40:33.196Z,14.40
2018-06-05T00:43:00.467Z,14.30
2018-06-05T00:45:27.701Z,14.30
2018-06-05T00:47:54.941Z,14.20
2018-06-05T00:50:22.192Z,14.20
2018-06-05T00:52:49.390Z,14.10
2018-06-05T00:55:16.637Z,14.10
2018-06-05T00:57:43.832Z,14.10
2018-06-05T01:00:11.084Z,14.10
2018-06-05T01:02:39.317Z,14.10
2018-06-05T01:05:06.589Z,14.10
2018-06-05T01:07:34.140Z,14.10
2018-06-05T01:10:01.462Z,14.10
2018-06-05T01:12:28.719Z,14.10
2018-06-05T01:14:56.098Z,14.20
2018-06-05T01:17:23.326Z,14.20
2018-06-05T01:19:50.502Z,14.20
2018-06-05T01:22:17.728Z,14.30
2018-06-05T01:24:44.981Z,14.30
2018-06-05T01:27:12.190Z,14.30
2018-06-05T01:29:39.601Z,14.40
2018-06-05T01:32:06.897Z,14.40
2018-06-05T01:34:34.116Z,14.40
2018-06-05T01:37:01.297Z,14.40
2018-06-05T01:39:28.495Z,14.40
2018-06-05T01:41:55.704Z,14.40
2018-06-05T01:44:23.038Z,14.50
2018-06-05T01:46:50.288Z,14.50
2018-06-05T01:49:17.485Z,14.50
2018-06-05T01:51:44.688Z,14.50
2018-06-05T01:54:11.908Z,14.50
2018-06-05T01:56:39.237Z,14.50
2018-06-05T01:59:06.461Z,14.60
2018-06-05T02:01:33.701Z,14.60
2018-06-05T02:04:00.973Z,14.70
2018-06-05T02:06:28.300Z,14.70
2018-06-05T02:08:55.529Z,14.70
2018-06-05T02:11:22.808Z,14.60
2018-06-05T02:13:50.081Z,14.70
2018-06-05T02:16:17.282Z,14.60
2018-06-05T02:18:44.509Z,14.70
2018-06-05T02:21:11.717Z,14.70
2018-06-05T02:23:39.004Z,14.70
2018-06-05T02:26:06.193Z,14.70
2018-06-05T02:28:33.416Z,14.70
2018-06-05T02:31:00.957Z,14.70
2018-06-05T02:33:28.167Z,14.70
2018-06-05T02:35:55.362Z,14.70
2018-06-05T02:38:22.628Z,14.70
2018-06-05T02:40:51.932Z,14.70
2018-06-05T02:43:19.145Z,14.60
2018-06-05T02:48:13.622Z,14.60
2018-06-05T02:50:40.863Z,14.60
2018-06-05T02:53:08.177Z,14.70
2018-06-05T02:55:35.453Z,14.60
2018-06-05T02:58:02.677Z,14.60
2018-06-05T03:00:29.940Z,14.60
2018-06-05T03:02:57.234Z,14.60
2018-06-05T03:05:24.480Z,14.50
2018-06-05T03:07:51.835Z,14.50
2018-06-05T03:10:19.054Z,14.50
2018-06-05T03:12:46.265Z,14.60
2018-06-05T03:15:13.492Z,14.60
2018-06-05T03:17:40.759Z,14.60
2018-06-05T03:20:07.951Z,14.60
2018-06-05T03:22:35.152Z,14.60
2018-06-05T03:25:02.434Z,14.60
2018-06-05T03:27:29.650Z,14.60
2018-06-05T03:29:56.955Z,14.70
2018-06-05T03:32:24.259Z,14.60
2018-06-05T03:34:51.510Z,14.70
2018-06-05T03:37:18.761Z,14.70
2018-06-05T03:39:46.014Z,14.80
2018-06-05T03:42:13.281Z,14.70
2018-06-05T03:44:40.584Z,14.70
2018-06-05T03:49:39.934Z,14.70
2018-06-05T03:52:07.349Z,14.70
2018-06-05T03:54:34.659Z,14.70
2018-06-05T03:57:01.856Z,14.70
2018-06-05T03:59:29.105Z,14.70
2018-06-05T04:01:56.326Z,14.80
2018-06-05T04:04:23.551Z,14.80
2018-06-05T04:06:50.780Z,14.80
2018-06-05T04:09:18.007Z,14.80
2018-06-05T04:11:45.260Z,14.80
2018-06-05T04:14:12.517Z,14.80
2018-06-05T04:16:39.812Z,14.80
2018-06-05T04:19:07.200Z,14.80
2018-06-05T04:21:34.557Z,14.90
2018-06-05T04:24:01.780Z,14.80
2018-06-05T04:26:29.004Z,14.80
2018-06-05T04:28:56.253Z,14.90
2018-06-05T04:31:23.608Z,14.90
2018-06-05T04:33:50.802Z,14.90
2018-06-05T04:36:18.009Z,15.00
2018-06-05T04:38:45.260Z,15.00
2018-06-05T04:41:12.480Z,15.00
2018-06-05T04:43:39.821Z,15.10
2018-06-05T04:46:07.109Z,15.10
2018-06-05T04:48:34.328Z,15.10
2018-06-05T04:51:01.620Z,15.10
2018-06-05T04:53:28.936Z,15.10
2018-06-05T04:55:56.199Z,15.30
2018-06-05T04:58:23.484Z,15.20
2018-06-05T05:00:51.192Z,15.30
2018-06-05T05:03:18.513Z,15.50
2018-06-05T05:05:45.720Z,15.40
2018-06-05T05:08:13.119Z,15.50
2018-06-05T05:10:40.316Z,15.50
2018-06-05T05:13:07.556Z,15.40
2018-06-05T05:15:34.802Z,15.50
2018-06-05T05:18:02.084Z,15.40
2018-06-05T05:20:29.364Z,15.40
2018-06-05T05:22:58.049Z,15.30
2018-06-05T05:25:25.320Z,15.30
2018-06-05T05:27:52.556Z,15.30
2018-06-05T05:30:19.845Z,15.30
2018-06-05T05:32:47.140Z,15.30
2018-06-05T05:35:14.413Z,15.40
2018-06-05T05:37:41.710Z,15.40
2018-06-05T05:40:09.114Z,15.30
2018-06-05T05:42:36.310Z,15.40
2018-06-05T05:45:03.633Z,15.50
2018-06-05T05:47:30.824Z,15.50
2018-06-05T05:49:58.024Z,15.60
2018-06-05T05:52:26.249Z,15.50
2018-06-05T05:54:53.488Z,15.60
2018-06-05T05:57:20.910Z,15.60
2018-06-05T05:59:49.226Z,15.50
2018-06-05T06:02:16.481Z,15.60
2018-06-05T06:04:43.729Z,15.50
2018-06-05T06:07:11.086Z,15.50
2018-06-05T06:09:38.423Z,15.60
2018-06-05T06:12:05.668Z,15.70
2018-06-05T06:14:33.057Z,15.90
2018-06-05T06:17:00.291Z,16.10
2018-06-05T06:19:27.615Z,16.10
2018-06-05T06:21:54.943Z,16.30
2018-06-05T06:24:22.193Z,16.60
2018-06-05T06:26:49.446Z,16.90
2018-06-05T06:29:16.766Z,16.80
2018-06-05T06:31:44.157Z,16.90
2018-06-05T06:34:11.423Z,16.90
2018-06-05T06:36:38.809Z,17.00
2018-06-05T06:39:08.997Z,17.30
2018-06-05T06:41:36.834Z,17.30
2018-06-05T06:44:04.160Z,17.20
2018-06-05T06:46:31.534Z,17.40
2018-06-05T06:48:58.868Z,17.10
2018-06-05T06:51:26.061Z,17.20
2018-06-05T06:53:53.352Z,17.20
2018-06-05T06:56:20.668Z,17.20
2018-06-05T06:58:47.978Z,17.10
2018-06-05T07:01:15.326Z,17.40
2018-06-05T07:03:42.621Z,17.60
2018-06-05T07:06:09.989Z,17.70
2018-06-05T07:08:37.361Z,17.80
2018-06-05T07:11:04.636Z,17.50
2018-06-05T07:13:32.064Z,17.50
2018-06-05T07:15:59.329Z,17.50
2018-06-05T07:18:26.651Z,17.40
2018-06-05T07:20:53.917Z,17.40
2018-06-05T07:23:21.835Z,17.20
2018-06-05T07:25:49.143Z,17.00
2018-06-05T07:28:16.671Z,16.90
2018-06-05T07:30:43.965Z,17.00
2018-06-05T07:33:11.331Z,17.00
2018-06-05T07:35:39.486Z,16.90
2018-06-05T07:38:07.264Z,17.00
2018-06-05T07:40:34.574Z,17.30
2018-06-05T07:43:01.878Z,17.20
2018-06-05T07:45:29.182Z,17.20
2018-06-05T07:50:23.793Z,17.30
2018-06-05T07:52:51.080Z,17.30
2018-06-05T07:55:18.670Z,17.40
2018-06-05T07:57:45.929Z,17.30
2018-06-05T08:00:13.248Z,17.30
2018-06-05T08:02:40.512Z,17.20
2018-06-05T08:05:08.171Z,17.30
2018-06-05T08:07:35.517Z,17.40
2018-06-05T08:10:03.192Z,17.50
2018-06-05T08:12:30.486Z,17.50
2018-06-05T08:14:58.337Z,17.50
2018-06-05T08:19:52.932Z,17.60
2018-06-05T08:22:20.340Z,17.70
2018-06-05T08:24:47.626Z,17.80
2018-06-05T08:27:14.868Z,18.00
2018-06-05T08:29:42.152Z,18.00
2018-06-05T08:32:14.784Z,18.00
2018-06-05T08:34:42.052Z,18.00
2018-06-05T08:37:10.565Z,17.90
2018-06-05T08:39:38.181Z,18.00
2018-06-05T08:42:05.794Z,17.90
2018-06-05T08:44:33.246Z,18.00
2018-06-05T08:47:00.598Z,18.10
2018-06-05T08:49:28.057Z,18.20
2018-06-05T08:51:55.393Z,18.30
2018-06-05T08:54:22.645Z,18.30
2018-06-05T08:56:49.900Z,18.20
2018-06-05T08:59:17.120Z,18.30
2018-06-05T09:01:43.896Z,18.20
2018-06-05T09:04:10.732Z,18.10
2018-06-05T09:06:38.191Z,18.10
2018-06-05T09:09:06.261Z,18.30
2018-06-05T09:11:33.262Z,18.60
2018-06-05T09:14:00.049Z,18.70
2018-06-05T09:16:26.804Z,18.90
2018-06-05T09:18:53.778Z,18.70
2018-06-05T09:21:20.524Z,18.80
2018-06-05T09:23:47.268Z,19.00
2018-06-05T09:26:14.700Z,19.10
2018-06-05T09:28:42.088Z,19.20
2018-06-05T09:31:10.342Z,19.20
2018-06-05T09:33:38.180Z,19.30
2018-06-05T09:36:05.469Z,19.10
2018-06-05T09:38:32.818Z,19.10
2018-06-05T09:41:00.101Z,19.40
2018-06-05T09:43:27.523Z,19.40
2018-06-05T09:45:54.783Z,19.50
2018-06-05T09:48:22.192Z,19.70
2018-06-05T09:50:49.696Z,19.70
2018-06-05T09:53:17.010Z,20.00
2018-06-05T09:55:44.511Z,20.20
2018-06-05T09:58:12.152Z,20.40
2018-06-05T10:00:45.259Z,20.60
2018-06-05T10:03:12.988Z,20.80
2018-06-05T10:05:40.378Z,21.00
2018-06-05T10:08:07.947Z,20.80
2018-06-05T10:10:35.973Z,20.90
2018-06-05T10:13:03.276Z,21.10
2018-06-05T10:15:30.551Z,21.00
2018-06-05T10:17:57.868Z,21.10
2018-06-05T10:20:25.406Z,21.00
2018-06-05T10:22:53.252Z,21.20
2018-06-05T10:25:20.480Z,21.50
2018-06-05T10:27:47.757Z,21.80
2018-06-05T10:30:14.984Z,21.10
2018-06-05T10:32:42.380Z,20.60
2018-06-05T10:35:09.766Z,20.90
2018-06-05T10:37:37.041Z,20.70
2018-06-05T10:40:04.275Z,20.80
2018-06-05T10:42:31.524Z,21.10
2018-06-05T10:44:58.847Z,21.60
2018-06-05T10:47:26.166Z,21.90
2018-06-05T10:49:53.381Z,22.00
2018-06-05T10:52:20.934Z,22.30
2018-06-05T10:54:48.309Z,22.10
2018-06-05T10:57:15.556Z,22.50
2018-06-05T10:59:43.746Z,22.70
2018-06-05T11:02:11.083Z,22.60
2018-06-05T11:04:38.429Z,22.60
2018-06-05T11:07:06.001Z,22.80
2018-06-05T11:09:33.320Z,22.80
2018-06-05T11:12:00.053Z,23.30
2018-06-05T11:14:26.832Z,23.90
2018-06-05T11:16:53.599Z,24.80
2018-06-05T11:19:20.928Z,25.20
2018-06-05T11:21:48.535Z,25.00
2018-06-05T11:24:15.969Z,25.40
2018-06-05T11:26:43.306Z,26.50
2018-06-05T11:29:10.700Z,26.60
2018-06-05T11:31:38.151Z,26.50
2018-06-05T11:34:06.409Z,26.30
2018-06-05T11:36:34.290Z,26.90
2018-06-05T11:39:01.525Z,26.90
2018-06-05T11:41:29.133Z,27.00
2018-06-05T11:43:56.514Z,27.20
2018-06-05T11:46:23.228Z,26.80
2018-06-05T11:49:03.749Z,27.00
2018-06-05T11:51:30.991Z,28.80
2018-06-05T11:53:58.512Z,29.00
2018-06-05T11:56:25.248Z,30.40
2018-06-05T11:58:52.437Z,29.60
2018-06-05T12:01:19.750Z,28.90
2018-06-05T12:03:46.983Z,29.20
2018-06-05T12:06:14.214Z,30.10
2018-06-05T12:08:41.708Z,30.50
2018-06-05T12:11:10.033Z,31.70
2018-06-05T12:16:04.875Z,31.30
2018-06-05T12:18:32.207Z,33.00
2018-06-05T12:20:59.566Z,31.90
2018-06-05T12:23:26.909Z,31.30
2018-06-05T12:25:54.171Z,31.90
2018-06-05T12:28:21.906Z,31.80
2018-06-05T12:30:49.186Z,31.60
2018-06-05T12:33:16.510Z,32.50
2018-06-05T12:35:43.825Z,33.70
2018-06-05T12:38:11.061Z,34.50
2018-06-05T12:43:06.180Z,32.90
2018-06-05T12:45:33.514Z,33.10
2018-06-05T12:48:00.794Z,34.70
2018-06-05T12:50:28.311Z,34.40
2018-06-05T12:52:55.610Z,34.90
2018-06-05T12:55:22.879Z,35.80
2018-06-05T12:57:50.450Z,36.70
2018-06-05T13:00:20.301Z,34.60
2018-06-05T13:02:48.443Z,36.50
2018-06-05T13:05:16.366Z,36.80
2018-06-05T13:07:43.929Z,37.70
2018-06-05T13:10:11.897Z,37.70
2018-06-05T13:12:39.373Z,36.10
2018-06-05T13:15:07.518Z,37.30
2018-06-05T13:17:36.502Z,37.80
2018-06-05T13:20:03.945Z,38.20
2018-06-05T13:22:31.299Z,37.50
2018-06-05T13:24:58.653Z,36.80
2018-06-05T13:27:33.350Z,38.60
2018-06-05T13:30:01.001Z,39.40
2018-06-05T13:32:30.184Z,40.60
2018-06-05T13:34:57.625Z,40.70
2018-06-05T13:37:25.936Z,37.60
2018-06-05T13:39:53.389Z,36.60
2018-06-05T13:42:20.682Z,38.60
2018-06-05T13:44:48.104Z,37.00
2018-06-05T13:47:15.390Z,37.00
2018-06-05T13:49:43.255Z,34.70
2018-06-05T13:52:10.621Z,35.90
2018-06-05T13:54:37.472Z,38.80
2018-06-05T13:57:04.776Z,40.50
2018-06-05T13:59:32.069Z,41.40
2018-06-05T14:01:59.373Z,39.20
2018-06-05T14:04:26.576Z,39.90
2018-06-05T14:06:53.828Z,38.90
2018-06-05T14:09:21.280Z,39.20
2018-06-05T14:11:48.468Z,40.30
2018-06-05T14:14:15.742Z,41.10
2018-06-05T14:16:42.977Z,40.70
2018-06-05T14:19:10.391Z,41.40
2018-06-05T14:21:37.744Z,42.00
2018-06-05T14:24:04.971Z,41.80
2018-06-05T14:26:32.486Z,41.30
2018-06-05T14:28:59.818Z,41.80
2018-06-05T14:31:27.118Z,42.60
2018-06-05T14:33:54.464Z,42.00
2018-06-05T14:36:21.639Z,41.70
2018-06-05T14:38:48.928Z,41.30
2018-06-05T14:41:16.365Z,42.40
2018-06-05T14:43:43.601Z,42.50
2018-06-05T14:46:11.004Z,43.10
2018-06-05T14:48:38.364Z,43.20
2018-06-05T14:51:05.627Z,42.00
2018-06-05T14:56:00.499Z,41.00
2018-06-05T14:58:27.726Z,40.50
2018-06-05T15:00:55.071Z,42.30
2018-06-05T15:03:22.512Z,40.70
2018-06-05T15:05:49.748Z,40.30
2018-06-05T15:08:17.041Z,42.00
2018-06-05T15:10:44.367Z,42.00
2018-06-05T15:13:11.749Z,42.00
2018-06-05T15:15:39.161Z,41.00
2018-06-05T15:18:06.395Z,41.70
2018-06-05T15:20:33.615Z,40.80
2018-06-05T15:23:00.816Z,41.90
2018-06-05T15:25:28.067Z,41.60
2018-06-05T15:27:55.353Z,41.10
2018-06-05T15:30:22.633Z,42.30
2018-06-05T15:32:49.876Z,42.30
2018-06-05T15:35:17.182Z,40.30
2018-06-05T15:37:44.445Z,39.20
2018-06-05T15:40:11.784Z,36.90
2018-06-05T15:42:39.271Z,36.00
2018-06-05T15:45:06.581Z,34.80
2018-06-05T15:47:33.876Z,35.60
2018-06-05T15:50:01.148Z,36.10
2018-06-05T15:52:28.503Z,38.10
2018-06-05T15:54:55.753Z,39.70
2018-06-05T15:57:23.042Z,39.20
2018-06-05T15:59:50.321Z,39.70
2018-06-05T16:02:17.642Z,38.30
2018-06-05T16:04:45.003Z,40.10
2018-06-05T16:07:12.328Z,40.30
2018-06-05T16:09:39.156Z,39.50
2018-06-05T16:12:06.465Z,39.70
2018-06-05T16:14:33.678Z,39.90
2018-06-05T16:17:00.954Z,38.90
2018-06-05T16:19:28.195Z,36.20
2018-06-05T16:21:55.518Z,34.40
2018-06-05T16:24:22.769Z,33.50
2018-06-05T16:26:50.048Z,32.00
2018-06-05T16:29:18.329Z,31.70
2018-06-05T16:31:45.630Z,31.10
2018-06-05T16:34:12.869Z,30.50
2018-06-05T16:36:40.421Z,29.70
2018-06-05T16:39:08.037Z,29.60
2018-06-05T16:41:35.409Z,29.60
2018-06-05T16:44:02.677Z,29.20
2018-06-05T16:46:30.516Z,28.60
2018-06-05T16:48:57.753Z,28.50
2018-06-05T16:51:25.006Z,28.40
2018-06-05T16:53:52.322Z,28.30
2018-06-05T16:56:19.553Z,27.90
2018-06-05T16:58:46.845Z,27.60
2018-06-05T17:01:14.163Z,27.40
2018-06-05T17:03:41.412Z,27.30
2018-06-05T17:06:08.956Z,27.20
2018-06-05T17:08:36.223Z,27.20
2018-06-05T17:11:03.481Z,27.20
2018-06-05T17:13:30.707Z,27.10
2018-06-05T17:15:57.956Z,26.90
2018-06-05T17:18:25.196Z,26.80
2018-06-05T17:20:52.448Z,26.60
2018-06-05T17:23:19.703Z,26.50
2018-06-05T17:25:46.455Z,26.30
2018-06-05T17:28:13.807Z,26.20
2018-06-05T17:30:41.160Z,26.10
2018-06-05T17:33:08.448Z,26.00
2018-06-05T17:35:35.701Z,25.80
2018-06-05T17:38:03.013Z,25.70
2018-06-05T17:40:30.787Z,25.80
2018-06-05T17:42:58.073Z,25.70
2018-06-05T17:45:25.357Z,25.60
2018-06-05T17:47:52.703Z,25.50
2018-06-05T17:50:19.965Z,25.40
2018-06-05T17:52:47.229Z,25.50
2018-06-05T17:55:14.849Z,25.50
2018-06-05T17:57:42.233Z,25.50
2018-06-05T18:00:09.758Z,25.60
2018-06-05T18:02:37.065Z,25.60
2018-06-05T18:05:04.405Z,25.60
2018-06-05T18:07:31.665Z,25.50
2018-06-05T18:09:58.936Z,25.40
2018-06-05T18:12:26.219Z,25.30
2018-06-05T18:14:53.471Z,25.30
2018-06-05T18:17:20.655Z,25.10
2018-06-05T18:19:47.919Z,24.90
2018-06-05T18:22:15.187Z,24.90
2018-06-05T18:24:42.463Z,24.70
2018-06-05T18:27:09.810Z,24.60
2018-06-05T18:29:37.076Z,24.60
2018-06-05T18:32:04.530Z,24.50
2018-06-05T18:34:31.800Z,24.40
2018-06-05T18:36:59.116Z,24.40
2018-06-05T18:39:26.359Z,24.30
2018-06-05T18:41:53.590Z,24.20
2018-06-05T18:44:20.885Z,24.10
2018-06-05T18:49:15.372Z,23.90
2018-06-05T18:51:42.723Z,23.70
2018-06-05T18:54:10.037Z,23.70
2018-06-05T18:56:37.489Z,23.60
2018-06-05T18:59:04.866Z,23.60
2018-06-05T19:01:32.293Z,23.50
2018-06-05T19:03:59.546Z,23.40
2018-06-05T19:06:26.704Z,23.30
2018-06-05T19:08:53.955Z,23.20
2018-06-05T19:11:21.178Z,23.10
2018-06-05T19:13:48.428Z,23.00
2018-06-05T19:16:15.681Z,22.90
2018-06-05T19:18:43.059Z,22.80
2018-06-05T19:21:10.326Z,22.70
2018-06-05T19:23:38.031Z,22.50
2018-06-05T19:26:05.365Z,22.40
2018-06-05T19:28:32.597Z,22.30
2018-06-05T19:30:59.972Z,22.20
2018-06-05T19:33:27.261Z,22.00
2018-06-05T19:35:54.486Z,21.90
2018-06-05T19:38:21.752Z,21.70
2018-06-05T19:40:48.592Z,21.60
2018-06-05T19:43:15.903Z,21.50
2018-06-05T19:45:43.249Z,21.30
2018-06-05T19:48:10.656Z,21.20
2018-06-05T19:50:37.937Z,21.00
2018-06-05T19:53:05.207Z,20.90
2018-06-05T19:55:32.417Z,20.80
2018-06-05T19:57:59.903Z,20.70
2018-06-05T20:00:27.116Z,20.60
2018-06-05T20:02:54.682Z,20.50
2018-06-05T20:05:22.017Z,20.30
2018-06-05T20:07:49.244Z,20.30
2018-06-05T20:10:16.627Z,20.20
2018-06-05T20:12:43.952Z,20.10
2018-06-05T20:15:11.316Z,20.00
2018-06-05T20:17:38.698Z,20.00
2018-06-05T20:20:06.833Z,19.90
2018-06-05T20:22:34.331Z,19.80
2018-06-05T20:25:01.642Z,19.70
2018-06-05T20:27:29.269Z,19.60
2018-06-05T20:29:56.525Z,19.60
2018-06-05T20:32:23.924Z,19.60
2018-06-05T20:34:51.172Z,19.50
2018-06-05T20:37:18.439Z,19.50
2018-06-05T20:39:45.764Z,19.40
2018-06-05T20:42:13.090Z,19.30
2018-06-05T20:44:40.536Z,19.30
2018-06-05T20:47:07.790Z,19.20
2018-06-05T20:49:35.153Z,19.20
2018-06-05T20:52:02.428Z,19.10
2018-06-05T20:56:56.856Z,19.00
2018-06-05T20:59:24.049Z,19.00
2018-06-05T21:01:51.325Z,19.00
2018-06-05T21:04:18.587Z,18.90
2018-06-05T21:06:45.773Z,18.90
2018-06-05T21:09:13.105Z,18.80
2018-06-05T21:11:40.429Z,18.80
2018-06-05T21:14:07.666Z,18.80
2018-06-05T21:16:34.892Z,18.90
2018-06-05T21:19:02.120Z,18.90
2018-06-05T21:21:29.464Z,18.80
2018-06-05T21:23:56.676Z,18.70
2018-06-05T21:26:23.872Z,18.70
2018-06-05T21:28:51.261Z,18.70
2018-06-05T21:31:18.447Z,18.70
2018-06-05T21:33:45.652Z,18.60
2018-06-05T21:36:12.896Z,18.60
2018-06-05T21:38:40.146Z,18.60
2018-06-05T21:41:07.368Z,18.50
2018-06-05T21:43:34.610Z,18.50
2018-06-05T21:46:01.817Z,18.50
2018-06-05T21:48:29.011Z,18.50
2018-06-05T21:50:56.407Z,18.50
2018-06-05T21:53:23.628Z,18.60
2018-06-05T21:55:51.013Z,18.60
2018-06-05T21:58:18.745Z,18.60
2018-06-05T22:00:45.943Z,18.60
2018-06-05T22:03:13.292Z,18.70
2018-06-05T22:05:40.479Z,18.60
2018-06-05T22:08:07.692Z,18.60
2018-06-05T22:10:34.929Z,18.50
2018-06-05T22:13:02.148Z,18.50
2018-06-05T22:17:56.658Z,18.40
2018-06-05T22:20:23.852Z,18.30
2018-06-05T22:22:51.087Z,18.30
2018-06-05T22:25:18.461Z,18.30
2018-06-05T22:27:45.710Z,18.30
2018-06-05T22:30:13.007Z,18.20
2018-06-05T22:32:40.209Z,18.10
2018-06-05T22:35:07.465Z,18.10
2018-06-05T22:37:34.802Z,18.10
2018-06-05T22:40:02.059Z,18.10
2018-06-05T22:42:29.336Z,18.00
2018-06-05T22:44:56.625Z,17.90
2018-06-05T22:47:23.821Z,18.00
2018-06-05T22:49:51.037Z,17.90
2018-06-05T22:52:18.622Z,17.90
2018-06-05T22:54:45.913Z,17.80
2018-06-05T22:57:13.254Z,17.70
2018-06-05T22:59:40.658Z,17.70
2018-06-05T23:02:08.017Z,17.60
2018-06-05T23:04:35.436Z,17.60
2018-06-05T23:07:02.701Z,17.60
2018-06-05T23:09:29.901Z,17.50
2018-06-05T23:11:57.126Z,17.50
2018-06-05T23:14:24.348Z,17.40
2018-06-05T23:16:51.555Z,17.40
2018-06-05T23:19:18.899Z,17.30
2018-06-05T23:21:46.138Z,17.30
2018-06-05T23:24:13.449Z,17.30
2018-06-05T23:26:40.751Z,17.30
2018-06-05T23:31:35.114Z,17.20
2018-06-05T23:34:02.345Z,17.20
2018-06-05T23:36:29.579Z,17.10
2018-06-05T23:38:56.803Z,17.00
2018-06-05T23:41:24.099Z,17.00
2018-06-05T23:43:51.307Z,17.00
2018-06-05T23:46:18.546Z,16.90
2018-06-05T23:48:45.724Z,17.00
2018-06-05T23:51:12.943Z,16.90
2018-06-05T23:53:40.200Z,17.00
2018-06-05T23:56:07.413Z,17.00
2018-06-05T23:58:34.620Z,17.00
